createdAt,value
2023-05-09T00:00:32.156Z,28.20
2023-05-09T00:03:35.349Z,29.23
2023-05-09T00:06:38.798Z,29.30
2023-05-09T00:09:43.326Z,28.97
2023-05-09T00:12:47.429Z,30.13
2023-05-09T00:15:50.551Z,27.73
2023-05-09T00:18:53.829Z,28.40
2023-05-09T00:21:56.970Z,29.20
2023-05-09T00:25:01.452Z,28.63
2023-05-09T00:28:04.598Z,29.77
2023-05-09T00:31:07.654Z,28.90
2023-05-09T00:34:11.137Z,27.13
2023-05-09T00:37:14.290Z,28.23
2023-05-09T00:40:18.806Z,28.27
2023-05-09T00:43:22.754Z,28.57
2023-05-09T00:46:25.913Z,28.00
2023-05-09T00:49:29.055Z,27.23
2023-05-09T00:52:34.499Z,28.37
2023-05-09T00:55:39.250Z,26.90
2023-05-09T00:58:42.563Z,27.40
2023-05-09T01:01:45.909Z,26.30
2023-05-09T01:04:49.804Z,27.27
2023-05-09T01:08:02.125Z,26.53
2023-05-09T01:11:12.077Z,26.43
2023-05-09T01:14:26.087Z,26.30
2023-05-09T01:17:37.913Z,25.47
2023-05-09T01:20:46.061Z,24.77
2023-05-09T01:24:16.582Z,25.53
2023-05-09T01:27:44.628Z,23.90
2023-05-09T01:30:52.865Z,24.17
2023-05-09T01:34:01.322Z,23.47
2023-05-09T01:37:07.133Z,24.33
2023-05-09T01:40:15.551Z,23.63
2023-05-09T01:43:20.938Z,22.37
2023-05-09T01:46:28.529Z,22.83
2023-05-09T01:49:33.949Z,22.83
2023-05-09T01:52:37.708Z,21.80
2023-05-09T01:55:42.594Z,23.70
2023-05-09T01:58:50.768Z,22.77
2023-05-09T02:01:59.396Z,22.83
2023-05-09T02:05:03.804Z,22.90
2023-05-09T02:08:07.558Z,22.10
2023-05-09T02:11:10.677Z,21.60
2023-05-09T02:14:14.064Z,23.23
2023-05-09T02:17:19.306Z,21.20
2023-05-09T02:20:22.530Z,20.57
2023-05-09T02:23:25.628Z,20.40
2023-05-09T02:26:31.234Z,21.93
2023-05-09T02:29:40.706Z,20.13
2023-05-09T02:32:48.541Z,21.27
2023-05-09T02:35:52.609Z,20.67
2023-05-09T02:38:56.246Z,20.07
2023-05-09T02:42:07.117Z,20.00
2023-05-09T02:45:11.956Z,21.47
2023-05-09T02:48:16.741Z,20.00
2023-05-09T02:51:20.072Z,20.30
2023-05-09T02:54:23.208Z,19.70
2023-05-09T02:57:26.441Z,18.83
2023-05-09T03:00:29.497Z,18.40
2023-05-09T03:03:34.837Z,18.07
2023-05-09T03:06:38.039Z,18.67
2023-05-09T03:09:42.854Z,38.27
2023-05-09T03:12:46.035Z,23.13
2023-05-09T03:15:49.175Z,26.07
2023-05-09T03:18:53.750Z,116.00
2023-05-09T03:21:56.833Z,191.13
2023-05-09T03:24:59.984Z,295.80
2023-05-09T03:28:03.281Z,209.03
2023-05-09T03:31:06.522Z,207.53
2023-05-09T03:34:15.339Z,166.50
2023-05-09T03:37:18.570Z,98.07
2023-05-09T03:40:21.694Z,105.23
2023-05-09T03:43:24.770Z,67.50
2023-05-09T03:46:27.907Z,96.03
2023-05-09T03:49:32.373Z,146.17
2023-05-09T03:52:37.390Z,77.73
2023-05-09T03:55:41.056Z,77.43
2023-05-09T03:58:44.238Z,42.80
2023-05-09T04:01:47.476Z,51.53
2023-05-09T04:04:52.849Z,63.03
2023-05-09T04:07:56.062Z,52.33
2023-05-09T04:10:59.159Z,33.77
2023-05-09T04:14:03.393Z,70.57
2023-05-09T04:17:06.766Z,46.33
2023-05-09T04:20:12.986Z,25.83
2023-05-09T04:23:16.289Z,35.50
2023-05-09T04:26:19.815Z,32.77
2023-05-09T04:29:22.910Z,23.43
2023-05-09T04:32:27.103Z,23.40
2023-05-09T04:35:31.700Z,25.53
2023-05-09T04:38:34.737Z,22.17
2023-05-09T04:41:38.081Z,19.23
2023-05-09T04:44:44.055Z,20.77
2023-05-09T04:47:47.325Z,16.87
2023-05-09T04:50:51.900Z,13.63
2023-05-09T04:53:54.951Z,11.17
2023-05-09T04:57:06.729Z,8.43
2023-05-09T05:00:20.464Z,7.80
2023-05-09T05:03:23.410Z,7.07
2023-05-09T05:06:27.959Z,6.17
2023-05-09T05:09:30.990Z,6.00
2023-05-09T05:12:34.044Z,3.80
2023-05-09T05:15:37.148Z,3.90
2023-05-09T05:18:40.247Z,3.37
2023-05-09T05:21:44.687Z,3.57
2023-05-09T05:24:47.766Z,2.40
2023-05-09T05:27:51.001Z,4.40
2023-05-09T05:30:54.121Z,2.53
2023-05-09T05:33:57.169Z,2.10
2023-05-09T05:37:01.667Z,3.37
2023-05-09T05:40:05.690Z,3.10
2023-05-09T05:43:08.901Z,1.40
2023-05-09T05:46:12.224Z,1.50
2023-05-09T05:49:15.333Z,2.30
2023-05-09T05:52:19.763Z,3.80
2023-05-09T05:55:22.856Z,1.83
2023-05-09T05:58:26.544Z,1.10
2023-05-09T06:01:29.774Z,1.10
2023-05-09T06:04:32.896Z,1.27
2023-05-09T06:07:37.314Z,0.97
2023-05-09T06:10:40.488Z,0.80
2023-05-09T06:13:43.702Z,0.67
2023-05-09T06:16:46.900Z,0.80
2023-05-09T06:19:49.998Z,0.67
2023-05-09T06:22:54.654Z,1.47
2023-05-09T06:25:57.682Z,0.87
2023-05-09T06:29:00.775Z,2.13
2023-05-09T06:32:03.898Z,1.77
2023-05-09T06:35:07.673Z,2.67
2023-05-09T06:38:12.140Z,0.90
2023-05-09T06:41:15.282Z,1.57
2023-05-09T06:44:18.395Z,1.00
2023-05-09T06:47:21.488Z,0.87
2023-05-09T06:50:24.746Z,0.97
2023-05-09T06:53:29.239Z,1.07
2023-05-09T06:56:32.581Z,6.40
2023-05-09T06:59:35.968Z,1.50
2023-05-09T07:02:42.408Z,1.97
2023-05-09T07:05:45.939Z,1.83
2023-05-09T07:08:51.261Z,2.43
2023-05-09T07:11:54.465Z,1.53
2023-05-09T07:14:57.687Z,1.60
2023-05-09T07:18:01.015Z,1.30
2023-05-09T07:21:04.370Z,1.80
2023-05-09T07:24:09.097Z,1.60
2023-05-09T07:27:12.158Z,1.73
2023-05-09T07:30:15.901Z,1.47
2023-05-09T07:33:19.292Z,1.07
2023-05-09T07:36:27.852Z,1.20
2023-05-09T07:39:32.481Z,1.20
2023-05-09T07:42:36.021Z,1.20
2023-05-09T07:45:39.451Z,1.50
2023-05-09T07:48:42.712Z,1.10
2023-05-09T07:51:45.851Z,1.07
2023-05-09T07:54:50.400Z,0.90
2023-05-09T07:57:53.448Z,0.90
2023-05-09T08:00:58.041Z,0.80
2023-05-09T08:04:01.284Z,1.00
2023-05-09T08:07:05.045Z,0.80
2023-05-09T08:10:11.342Z,1.00
2023-05-09T08:13:14.478Z,3.07
2023-05-09T08:16:18.045Z,2.13
2023-05-09T08:19:23.642Z,1.00
2023-05-09T08:22:26.695Z,10.13
2023-05-09T08:25:31.236Z,2.00
2023-05-09T08:28:34.385Z,3.30
2023-05-09T08:31:37.532Z,4.23
2023-05-09T08:34:40.629Z,1.30
2023-05-09T08:37:44.033Z,2.13
2023-05-09T08:40:48.623Z,1.83
2023-05-09T08:43:51.907Z,6.43
2023-05-09T08:46:59.665Z,5.13
2023-05-09T08:50:04.397Z,4.50
2023-05-09T08:53:08.158Z,7.00
2023-05-09T08:56:12.970Z,7.40
2023-05-09T08:59:18.111Z,15.53
2023-05-09T09:02:21.607Z,33.27
2023-05-09T09:05:40.658Z,54.17
2023-05-09T09:08:45.484Z,49.33
2023-05-09T09:11:50.291Z,80.37
2023-05-09T09:14:56.520Z,62.37
2023-05-09T09:18:08.200Z,81.53
2023-05-09T09:21:13.383Z,74.63
2023-05-09T09:24:22.912Z,60.83
2023-05-09T09:27:27.548Z,50.30
2023-05-09T09:30:30.863Z,35.37
2023-05-09T09:33:34.035Z,27.57
2023-05-09T09:36:37.512Z,20.37
2023-05-09T09:39:55.498Z,22.30
2023-05-09T09:43:00.001Z,9.33
2023-05-09T09:46:04.066Z,8.73
2023-05-09T09:49:07.188Z,4.90
2023-05-09T09:52:10.350Z,8.80
2023-05-09T09:55:13.976Z,5.93
2023-05-09T09:58:24.890Z,5.73
2023-05-09T10:01:28.566Z,3.53
2023-05-09T10:04:33.038Z,1.70
2023-05-09T10:07:36.717Z,2.30
2023-05-09T10:10:39.972Z,11.33
2023-05-09T10:13:45.311Z,4.53
2023-05-09T10:16:49.780Z,5.63
2023-05-09T10:19:53.594Z,5.10
2023-05-09T10:22:59.076Z,3.13
2023-05-09T10:26:15.280Z,3.47
2023-05-09T10:29:24.693Z,3.23
2023-05-09T10:32:32.831Z,2.97
2023-05-09T10:35:41.347Z,2.07
2023-05-09T10:38:45.254Z,1.60
2023-05-09T10:41:50.043Z,2.33
2023-05-09T10:44:55.212Z,1.63
2023-05-09T10:47:59.271Z,1.80
2023-05-09T10:51:03.862Z,5.77
2023-05-09T10:54:16.710Z,2.13
2023-05-09T10:57:21.487Z,4.60
2023-05-09T11:00:27.436Z,2.50
2023-05-09T11:03:54.453Z,2.43
2023-05-09T11:06:57.843Z,3.03
2023-05-09T11:10:10.510Z,1.90
2023-05-09T11:13:13.655Z,2.10
2023-05-09T11:16:18.277Z,2.23
2023-05-09T11:19:36.377Z,3.03
2023-05-09T11:22:41.578Z,2.23
2023-05-09T11:25:48.306Z,2.23
2023-05-09T11:28:56.976Z,2.80
2023-05-09T11:32:09.017Z,3.10
2023-05-09T11:35:15.341Z,2.37
2023-05-09T11:38:23.210Z,2.67
2023-05-09T11:41:26.551Z,2.63
2023-05-09T11:44:31.849Z,2.47
2023-05-09T11:47:37.305Z,2.60
2023-05-09T11:50:41.640Z,2.80
2023-05-09T11:53:47.284Z,2.80
2023-05-09T11:56:50.393Z,3.20
2023-05-09T11:59:54.234Z,3.70
2023-05-09T12:02:58.916Z,84.93
2023-05-09T12:06:02.325Z,66.37
2023-05-09T12:09:05.792Z,48.43
2023-05-09T12:12:12.964Z,43.37
2023-05-09T12:15:17.094Z,39.13
2023-05-09T12:18:22.230Z,18.53
2023-05-09T12:21:25.382Z,16.30
2023-05-09T12:24:29.337Z,6.83
2023-05-09T12:27:33.457Z,8.57
2023-05-09T12:30:36.971Z,4.10
2023-05-09T12:33:42.160Z,4.70
2023-05-09T12:36:50.999Z,3.73
2023-05-09T12:40:05.110Z,3.57
2023-05-09T12:43:08.815Z,4.87
2023-05-09T12:46:11.857Z,3.00
2023-05-09T12:49:22.998Z,4.20
2023-05-09T12:52:26.435Z,2.70
2023-05-09T12:55:29.861Z,2.50
2023-05-09T12:58:33.682Z,2.60
2023-05-09T13:01:37.310Z,1.77
2023-05-09T13:04:41.967Z,2.80
2023-05-09T13:07:46.507Z,2.97
2023-05-09T13:10:57.833Z,2.37
2023-05-09T13:14:07.657Z,2.40
2023-05-09T13:17:10.983Z,2.00
2023-05-09T13:20:16.030Z,2.80
2023-05-09T13:23:19.477Z,1.90
2023-05-09T13:26:22.573Z,2.47
2023-05-09T13:29:25.769Z,2.03
2023-05-09T13:32:28.940Z,2.30
2023-05-09T13:35:33.471Z,2.10
2023-05-09T13:38:38.882Z,2.47
2023-05-09T13:41:42.025Z,4.37
2023-05-09T13:44:45.096Z,4.47
2023-05-09T13:47:48.210Z,2.50
2023-05-09T13:50:53.646Z,2.17
2023-05-09T13:53:56.817Z,2.00
2023-05-09T13:57:01.470Z,2.07
2023-05-09T14:00:05.526Z,2.60
2023-05-09T14:03:08.512Z,2.30
2023-05-09T14:06:15.370Z,2.47
2023-05-09T14:09:19.308Z,2.53
2023-05-09T14:12:24.764Z,3.50
2023-05-09T14:15:27.788Z,2.80
2023-05-09T14:18:30.813Z,2.07
2023-05-09T14:21:35.658Z,1.80
2023-05-09T14:24:38.719Z,2.20
2023-05-09T14:27:42.044Z,2.53
2023-05-09T14:30:45.173Z,1.77
2023-05-09T14:33:48.159Z,1.77
2023-05-09T14:36:52.663Z,1.97
2023-05-09T14:39:55.691Z,1.90
2023-05-09T14:42:58.927Z,2.57
2023-05-09T14:46:02.422Z,1.57
2023-05-09T14:49:05.566Z,2.90
2023-05-09T14:52:11.099Z,1.77
2023-05-09T14:55:14.327Z,1.73
2023-05-09T14:58:18.064Z,1.80
2023-05-09T15:01:21.232Z,12.73
2023-05-09T15:04:28.356Z,4.10
2023-05-09T15:07:32.957Z,3.53
2023-05-09T15:10:36.347Z,43.03
2023-05-09T15:13:39.444Z,12.33
2023-05-09T15:16:43.014Z,13.67
2023-05-09T15:19:46.160Z,20.50
2023-05-09T15:22:51.286Z,9.13
2023-05-09T15:25:54.387Z,12.50
2023-05-09T15:28:57.448Z,14.03
2023-05-09T15:32:00.619Z,14.90
2023-05-09T15:35:03.855Z,12.27
2023-05-09T15:38:12.159Z,8.63
2023-05-09T15:41:15.510Z,12.83
2023-05-09T15:44:18.785Z,13.20
2023-05-09T15:47:22.146Z,40.03
2023-05-09T15:50:25.235Z,34.47
2023-05-09T15:53:29.798Z,26.90
2023-05-09T15:56:32.912Z,28.10
2023-05-09T15:59:35.928Z,31.30
2023-05-09T16:02:39.041Z,21.50
2023-05-09T16:05:42.501Z,34.90
2023-05-09T16:08:47.845Z,21.93
2023-05-09T16:11:50.920Z,26.10
2023-05-09T16:14:54.040Z,20.20
2023-05-09T16:17:57.305Z,21.63
2023-05-09T16:21:00.332Z,19.80
2023-05-09T16:24:05.331Z,19.50
2023-05-09T16:27:08.406Z,21.97
2023-05-09T16:30:12.394Z,14.67
2023-05-09T16:33:16.313Z,16.37
2023-05-09T16:36:19.540Z,59.37
2023-05-09T16:39:23.980Z,26.20
2023-05-09T16:42:27.990Z,27.43
2023-05-09T16:45:31.125Z,18.97
2023-05-09T16:48:34.239Z,22.27
2023-05-09T16:51:37.313Z,24.63
2023-05-09T16:54:41.818Z,18.20
2023-05-09T16:57:44.914Z,15.23
2023-05-09T17:00:48.305Z,13.57
2023-05-09T17:03:51.630Z,15.80
2023-05-09T17:06:54.815Z,23.27
2023-05-09T17:09:59.347Z,22.73
2023-05-09T17:13:07.643Z,12.57
2023-05-09T17:16:10.948Z,11.20
2023-05-09T17:19:14.085Z,13.70
2023-05-09T17:22:17.229Z,17.50
2023-05-09T17:25:21.706Z,28.30
2023-05-09T17:28:24.946Z,21.57
2023-05-09T17:31:28.220Z,31.70
2023-05-09T17:34:32.342Z,39.83
2023-05-09T17:37:35.981Z,33.57
2023-05-09T17:40:40.848Z,40.60
2023-05-09T17:43:44.624Z,33.80
2023-05-09T17:46:49.264Z,33.90
2023-05-09T17:49:52.514Z,31.73
2023-05-09T17:52:57.033Z,36.77
2023-05-09T17:56:02.104Z,26.13
2023-05-09T17:59:05.636Z,27.63
2023-05-09T18:02:08.857Z,27.50
2023-05-09T18:05:12.490Z,26.53
2023-05-09T18:08:16.044Z,30.00
2023-05-09T18:11:20.990Z,33.17
2023-05-09T18:14:24.077Z,36.57
2023-05-09T18:17:27.257Z,24.57
2023-05-09T18:20:30.373Z,27.70
2023-05-09T18:23:33.547Z,24.13
2023-05-09T18:26:38.072Z,21.57
2023-05-09T18:29:41.247Z,28.00
2023-05-09T18:32:44.324Z,33.63
2023-05-09T18:35:47.463Z,36.70
2023-05-09T18:38:50.582Z,39.67
2023-05-09T18:41:55.115Z,40.47
2023-05-09T18:45:00.669Z,36.27
2023-05-09T18:48:04.631Z,32.20
2023-05-09T18:51:07.781Z,26.77
2023-05-09T18:54:11.134Z,37.40
2023-05-09T18:57:15.622Z,19.17
2023-05-09T19:00:18.896Z,27.13
2023-05-09T19:03:24.405Z,27.03
2023-05-09T19:06:27.688Z,23.00
2023-05-09T19:09:31.092Z,24.33
2023-05-09T19:12:36.486Z,15.80
2023-05-09T19:15:39.689Z,18.50
2023-05-09T19:18:43.051Z,17.03
2023-05-09T19:21:47.159Z,16.30
2023-05-09T19:24:52.182Z,11.10
2023-05-09T19:27:56.681Z,14.20
2023-05-09T19:30:59.821Z,12.67
2023-05-09T19:34:02.956Z,9.37
2023-05-09T19:37:06.010Z,10.23
2023-05-09T19:40:11.367Z,10.50
2023-05-09T19:43:15.920Z,12.23
2023-05-09T19:46:19.488Z,12.97
2023-05-09T19:49:22.708Z,12.70
2023-05-09T19:52:25.869Z,12.13
2023-05-09T19:55:29.196Z,15.37
2023-05-09T19:58:33.724Z,13.07
2023-05-09T20:01:37.110Z,13.90
2023-05-09T20:04:42.590Z,8.87
2023-05-09T20:07:46.819Z,12.17
2023-05-09T20:10:49.926Z,10.90
2023-05-09T20:13:54.385Z,10.33
2023-05-09T20:16:58.261Z,18.63
2023-05-09T20:20:01.625Z,37.10
2023-05-09T20:23:04.653Z,29.47
2023-05-09T20:26:07.796Z,26.40
2023-05-09T20:29:12.371Z,31.57
2023-05-09T20:32:15.468Z,27.80
2023-05-09T20:35:18.628Z,26.23
2023-05-09T20:38:21.738Z,23.37
2023-05-09T20:41:25.628Z,19.07
2023-05-09T20:44:30.144Z,23.83
2023-05-09T20:47:33.199Z,24.77
2023-05-09T20:50:36.348Z,26.20
2023-05-09T20:53:39.410Z,18.33
2023-05-09T20:56:42.450Z,24.03
2023-05-09T20:59:47.072Z,17.63
2023-05-09T21:02:50.181Z,17.80
2023-05-09T21:05:53.390Z,19.20
2023-05-09T21:08:56.447Z,16.60
2023-05-09T21:12:00.747Z,17.30
2023-05-09T21:15:05.814Z,16.63
2023-05-09T21:18:08.885Z,19.20
2023-05-09T21:21:11.939Z,19.70
2023-05-09T21:24:14.954Z,16.63
2023-05-09T21:27:18.033Z,16.60
2023-05-09T21:30:22.434Z,17.07
2023-05-09T21:33:25.470Z,15.10
2023-05-09T21:36:28.650Z,17.00
2023-05-09T21:39:33.413Z,15.60
2023-05-09T21:42:37.464Z,16.60
2023-05-09T21:45:41.880Z,20.30
2023-05-09T21:48:44.931Z,15.37
2023-05-09T21:51:47.973Z,15.10
2023-05-09T21:54:51.034Z,15.60
2023-05-09T21:57:54.060Z,15.53
2023-05-09T22:00:58.593Z,16.00
2023-05-09T22:04:02.373Z,14.33
2023-05-09T22:07:05.524Z,16.57
2023-05-09T22:10:09.665Z,14.73
2023-05-09T22:13:12.833Z,15.77
2023-05-09T22:16:17.703Z,14.40
2023-05-09T22:19:20.849Z,14.03
2023-05-09T22:22:23.984Z,15.00
2023-05-09T22:25:27.008Z,16.57
2023-05-09T22:28:30.030Z,15.10
2023-05-09T22:31:34.517Z,16.30
2023-05-09T22:34:37.522Z,17.20
2023-05-09T22:37:40.626Z,14.97
2023-05-09T22:40:43.738Z,16.37
2023-05-09T22:43:46.949Z,14.57
2023-05-09T22:46:51.408Z,13.87
2023-05-09T22:49:54.636Z,12.40
2023-05-09T22:52:57.704Z,13.80
2023-05-09T22:56:00.876Z,13.10
2023-05-09T22:59:03.930Z,13.40
2023-05-09T23:02:08.437Z,13.00
2023-05-09T23:05:11.794Z,12.57
2023-05-09T23:08:14.917Z,12.13
2023-05-09T23:11:17.986Z,12.27
2023-05-09T23:14:21.054Z,12.90
2023-05-09T23:17:25.624Z,11.73
2023-05-09T23:20:28.700Z,12.73
2023-05-09T23:23:31.813Z,13.53
2023-05-09T23:26:34.791Z,12.83
2023-05-09T23:29:37.830Z,11.27
2023-05-09T23:32:44.950Z,11.93
2023-05-09T23:35:49.084Z,11.27
2023-05-09T23:38:52.084Z,12.27
2023-05-09T23:41:55.163Z,11.80
2023-05-09T23:44:59.722Z,12.03
2023-05-09T23:48:04.351Z,10.83
2023-05-09T23:51:07.559Z,11.07
2023-05-09T23:54:10.771Z,12.03
2023-05-09T23:57:13.781Z,10.70
